Terminal Aerodrome Forecast
Issued by NWS Shreveport, LA

Home | Current Version | Previous Version | Text Only | Print | Product List | Glossary On
Versions: 1 2 3 4 5 6 7 8 9 10 11 12 13 14 15 16 17
000
FTUS44 KSHV 011400 AAA
TAFELD
TAF AMD
KELD 011440Z 0115/0212 01006KT 3SM -RA BR OVC006
      TEMPO 0115/0116 1SM RA BR OVC002
     FM011600 05005KT 5SM -RA BR OVC015
      TEMPO 0118/0122 2SM -RA BR OVC007
     FM012200 05006KT 1SM -RA BR OVC007=

USA.gov is the U.S. government's official web portal to all federal, state and local government web resources and services.